Prime Lily — V7YJ2 — position and weather

sailwx.info

Track history (hours):
 
Tides and Currents Weather Stations Pressure Air Temp Water Temp Dewpoint Dewpoint Depression Visibility Wind Speed Wind Dir Waves Ship Positions

Prime Lily

Last reported at 2018-Feb-13 16:22 UTC. Time now 2018-Feb-24 22:08 UTC.
Position N 09°11' W 079°52'.
Warning: this ship's position is 11 days out of date.

Length 229 m; draft 12 m.

Type: Cargo ship. MMSI: 538004671.

Date/timePositionNaut miles runAvg speedWind from/ knotsBaromVisibWave heightAir tempDewpointWater temp
2018-Feb-13 16:22N 09°11' W 079°52'4 9.2
2018-Feb-13 15:58N 09°13' W 079°55'1 2.2
2018-Feb-13 15:30N 09°13' W 079°56'0 0.1
2018-Feb-13 14:57N 09°13' W 079°56'0 0.1
2018-Feb-13 14:26N 09°13' W 079°56'0 0.0
2018-Feb-13 13:56N 09°13' W 079°56'0 0.0
2018-Feb-13 13:29N 09°13' W 079°56'0 0.0
2018-Feb-13 12:59N 09°13' W 079°56'0 0.0
2018-Feb-13 12:24N 09°13' W 079°56'0 0.0
2018-Feb-13 11:59N 09°13' W 079°56'0 0.0
2018-Feb-13 11:30N 09°13' W 079°56'0 0.1
2018-Feb-13 10:59N 09°13' W 079°56'1 2.3
2018-Feb-13 10:27N 09°14' W 079°55'2 5.4
2018-Feb-13 10:00N 09°16' W 079°55'0 0.5
2018-Feb-13 09:30N 09°16' W 079°55'0 0.4
2018-Feb-13 09:00N 09°17' W 079°55'0 0.3
2018-Feb-13 08:30N 09°17' W 079°55'0 1.0
2018-Feb-13 08:00N 09°17' W 079°55'3 6.1
2018-Feb-13 07:30N 09°20' W 079°55'4 8.4
2018-Feb-13 07:00N 09°25' W 079°55'2 5.0
2018-Feb-13 06:30N 09°27' W 079°56'0 0.1
2018-Feb-13 05:59N 09°27' W 079°56'0 0.0
2018-Feb-13 05:29N 09°27' W 079°56'0 0.0
2018-Feb-13 04:59N 09°27' W 079°56'0 0.0
2018-Feb-13 04:29N 09°27' W 079°56'0 0.0
2018-Feb-13 03:59N 09°27' W 079°56'0 0.0
2018-Feb-13 03:29N 09°27' W 079°56'0 0.0
2018-Feb-13 02:59N 09°27' W 079°56'0 0.0
2018-Feb-13 02:29N 09°27' W 079°56'0 0.0
2018-Feb-13 01:59N 09°27' W 079°56'0 0.0
2018-Feb-13 01:29N 09°27' W 079°56'0 0.0
2018-Feb-13 00:56N 09°27' W 079°56'0 0.0
2018-Feb-13 00:26N 09°27' W 079°56'0 0.0
2018-Feb-12 23:59N 09°27' W 079°56'0 0.0
2018-Feb-12 23:29N 09°27' W 079°56'0 0.0
2018-Feb-12 22:56N 09°27' W 079°56'0 0.0
2018-Feb-12 22:29N 09°27' W 079°56'0 0.0
2018-Feb-12 21:59N 09°27' W 079°56'0 0.0
2018-Feb-12 21:29N 09°27' W 079°56'0 0.0
2018-Feb-12 20:59N 09°27' W 079°56'0 0.0
2018-Feb-12 20:29N 09°27' W 079°56'0 0.0
2018-Feb-12 19:59N 09°27' W 079°56'0 0.0
2018-Feb-12 19:29N 09°27' W 079°56'0 0.0
2018-Feb-12 18:59N 09°27' W 079°56'0 0.0
2018-Feb-12 18:29N 09°27' W 079°56'0 0.0
2018-Feb-12 17:59N 09°27' W 079°56'0 0.1
2018-Feb-12 17:29N 09°27' W 079°56'0 0.0
2018-Feb-12 16:59N 09°27' W 079°56'0 0.0
2018-Feb-12 16:29N 09°27' W 079°56'0 0.1
2018-Feb-12 15:59N 09°27' W 079°56'0 0.1
2018-Feb-12 15:17N 09°27' W 079°56'0 0.0
2018-Feb-12 14:59N 09°27' W 079°56'0 0.0
2018-Feb-12 14:29N 09°27' W 079°56'0 0.0
2018-Feb-12 13:59N 09°27' W 079°56'0 0.0
2018-Feb-12 13:29N 09°27' W 079°56'0 0.0
2018-Feb-12 12:59N 09°27' W 079°56'0 0.0
2018-Feb-12 12:29N 09°27' W 079°56'0 0.0
2018-Feb-12 11:59N 09°27' W 079°56'0 0.0
2018-Feb-12 11:29N 09°27' W 079°56'0 0.0
2018-Feb-12 10:56N 09°27' W 079°56'0 0.0
2018-Feb-12 10:29N 09°27' W 079°56'0 0.0
2018-Feb-12 09:59N 09°27' W 079°56'0 0.0
2018-Feb-12 09:29N 09°27' W 079°56'0 0.0
2018-Feb-12 08:59N 09°27' W 079°56'0 0.0
2018-Feb-12 08:29N 09°27' W 079°56'0 0.0
2018-Feb-12 07:56N 09°27' W 079°56'0 0.0
2018-Feb-12 07:29N 09°27' W 079°56'0 0.0
2018-Feb-12 06:56N 09°27' W 079°56'0 0.0
2018-Feb-12 06:26N 09°27' W 079°56'0 0.0
2018-Feb-12 05:59N 09°27' W 079°56'0 0.0
2018-Feb-12 05:29N 09°27' W 079°56'0 0.0
2018-Feb-12 04:59N 09°27' W 079°56'0 0.0
2018-Feb-12 04:29N 09°27' W 079°56'0 0.0
2018-Feb-12 03:59N 09°27' W 079°56'0 0.0
2018-Feb-12 03:17N 09°27' W 079°56'0 0.1
2018-Feb-12 02:59N 09°27' W 079°56'0 0.0
2018-Feb-12 02:29N 09°27' W 079°56'0 0.0
2018-Feb-12 01:59N 09°27' W 079°56'0 0.0
2018-Feb-12 01:26N 09°27' W 079°56'0 0.0
2018-Feb-12 00:59N 09°27' W 079°56'0 0.0
2018-Feb-12 00:23N 09°27' W 079°56'0 0.0
2018-Feb-11 23:47N 09°26' W 079°56'0 0.8
2018-Feb-11 23:30N 09°27' W 079°56'2 4.0
2018-Feb-11 23:00N 09°28' W 079°55'510.3
2018-Feb-11 22:30N 09°33' W 079°53'  
2018-Feb-06 10:54N 16°23' W 062°36'613.1
2018-Feb-06 10:28N 16°26' W 062°31'713.2
2018-Feb-06 09:57N 16°29' W 062°24'713.3
2018-Feb-06 09:23N 16°32' W 062°17'513.3
2018-Feb-06 09:00N 16°34' W 062°12'713.3
2018-Feb-06 08:30N 16°37' W 062°06'713.1
2018-Feb-06 08:00N 16°41' W 062°01'713.2
2018-Feb-06 07:30N 16°44' W 061°55'713.1
2018-Feb-06 07:00N 16°48' W 061°49'612.7
2018-Feb-06 06:30N 16°52' W 061°44'612.9
2018-Feb-06 06:00N 16°55' W 061°38'612.8
2018-Feb-06 05:30N 16°59' W 061°33'612.7
2018-Feb-06 05:00N 17°03' W 061°27'612.8
2018-Feb-06 04:30N 17°06' W 061°22'612.7
2018-Feb-06 04:00N 17°10' W 061°16'612.5
2018-Feb-06 03:30N 17°13' W 061°11'612.4
2018-Feb-06 03:00N 17°17' W 061°06'612.7
2018-Feb-06 02:30N 17°21' W 061°00'  
Track history (hours):
 
Tides and Currents Weather Stations Pressure Air Temp Water Temp Dewpoint Dewpoint Depression Visibility Wind Speed Wind Dir Waves Ship Positions

Prime Lily

Last reported at 2018-Feb-13 16:22 UTC. Time now 2018-Feb-24 22:08 UTC.
Position N 09°11' W 079°52'.
Warning: this ship's position is 11 days out of date.

Length 229 m; draft 12 m.

Type: Cargo ship. MMSI: 538004671.

Date/timePositionNaut miles runAvg speedWind from/ knotsBaromVisibWave heightAir tempDewpointWater temp
2018-Feb-13 16:22N 09°11' W 079°52'4 9.2
2018-Feb-13 15:58N 09°13' W 079°55'1 2.2
2018-Feb-13 15:30N 09°13' W 079°56'0 0.1
2018-Feb-13 14:57N 09°13' W 079°56'0 0.1
2018-Feb-13 14:26N 09°13' W 079°56'0 0.0
2018-Feb-13 13:56N 09°13' W 079°56'0 0.0
2018-Feb-13 13:29N 09°13' W 079°56'0 0.0
2018-Feb-13 12:59N 09°13' W 079°56'0 0.0
2018-Feb-13 12:24N 09°13' W 079°56'0 0.0
2018-Feb-13 11:59N 09°13' W 079°56'0 0.0
2018-Feb-13 11:30N 09°13' W 079°56'0 0.1
2018-Feb-13 10:59N 09°13' W 079°56'1 2.3
2018-Feb-13 10:27N 09°14' W 079°55'2 5.4
2018-Feb-13 10:00N 09°16' W 079°55'0 0.5
2018-Feb-13 09:30N 09°16' W 079°55'0 0.4
2018-Feb-13 09:00N 09°17' W 079°55'0 0.3
2018-Feb-13 08:30N 09°17' W 079°55'0 1.0
2018-Feb-13 08:00N 09°17' W 079°55'3 6.1
2018-Feb-13 07:30N 09°20' W 079°55'4 8.4
2018-Feb-13 07:00N 09°25' W 079°55'2 5.0
2018-Feb-13 06:30N 09°27' W 079°56'0 0.1
2018-Feb-13 05:59N 09°27' W 079°56'0 0.0
2018-Feb-13 05:29N 09°27' W 079°56'0 0.0
2018-Feb-13 04:59N 09°27' W 079°56'0 0.0
2018-Feb-13 04:29N 09°27' W 079°56'0 0.0
2018-Feb-13 03:59N 09°27' W 079°56'0 0.0
2018-Feb-13 03:29N 09°27' W 079°56'0 0.0
2018-Feb-13 02:59N 09°27' W 079°56'0 0.0
2018-Feb-13 02:29N 09°27' W 079°56'0 0.0
2018-Feb-13 01:59N 09°27' W 079°56'0 0.0
2018-Feb-13 01:29N 09°27' W 079°56'0 0.0
2018-Feb-13 00:56N 09°27' W 079°56'0 0.0
2018-Feb-13 00:26N 09°27' W 079°56'0 0.0
2018-Feb-12 23:59N 09°27' W 079°56'0 0.0
2018-Feb-12 23:29N 09°27' W 079°56'0 0.0
2018-Feb-12 22:56N 09°27' W 079°56'0 0.0
2018-Feb-12 22:29N 09°27' W 079°56'0 0.0
2018-Feb-12 21:59N 09°27' W 079°56'0 0.0
2018-Feb-12 21:29N 09°27' W 079°56'0 0.0
2018-Feb-12 20:59N 09°27' W 079°56'0 0.0
2018-Feb-12 20:29N 09°27' W 079°56'0 0.0
2018-Feb-12 19:59N 09°27' W 079°56'0 0.0
2018-Feb-12 19:29N 09°27' W 079°56'0 0.0
2018-Feb-12 18:59N 09°27' W 079°56'0 0.0
2018-Feb-12 18:29N 09°27' W 079°56'0 0.0
2018-Feb-12 17:59N 09°27' W 079°56'0 0.1
2018-Feb-12 17:29N 09°27' W 079°56'0 0.0
2018-Feb-12 16:59N 09°27' W 079°56'0 0.0
2018-Feb-12 16:29N 09°27' W 079°56'0 0.1
2018-Feb-12 15:59N 09°27' W 079°56'0 0.1
2018-Feb-12 15:17N 09°27' W 079°56'0 0.0
2018-Feb-12 14:59N 09°27' W 079°56'0 0.0
2018-Feb-12 14:29N 09°27' W 079°56'0 0.0
2018-Feb-12 13:59N 09°27' W 079°56'0 0.0
2018-Feb-12 13:29N 09°27' W 079°56'0 0.0
2018-Feb-12 12:59N 09°27' W 079°56'0 0.0
2018-Feb-12 12:29N 09°27' W 079°56'0 0.0
2018-Feb-12 11:59N 09°27' W 079°56'0 0.0
2018-Feb-12 11:29N 09°27' W 079°56'0 0.0
2018-Feb-12 10:56N 09°27' W 079°56'0 0.0
2018-Feb-12 10:29N 09°27' W 079°56'0 0.0
2018-Feb-12 09:59N 09°27' W 079°56'0 0.0
2018-Feb-12 09:29N 09°27' W 079°56'0 0.0
2018-Feb-12 08:59N 09°27' W 079°56'0 0.0
2018-Feb-12 08:29N 09°27' W 079°56'0 0.0
2018-Feb-12 07:56N 09°27' W 079°56'0 0.0
2018-Feb-12 07:29N 09°27' W 079°56'0 0.0
2018-Feb-12 06:56N 09°27' W 079°56'0 0.0
2018-Feb-12 06:26N 09°27' W 079°56'0 0.0
2018-Feb-12 05:59N 09°27' W 079°56'0 0.0
2018-Feb-12 05:29N 09°27' W 079°56'0 0.0
2018-Feb-12 04:59N 09°27' W 079°56'0 0.0
2018-Feb-12 04:29N 09°27' W 079°56'0 0.0
2018-Feb-12 03:59N 09°27' W 079°56'0 0.0
2018-Feb-12 03:17N 09°27' W 079°56'0 0.1
2018-Feb-12 02:59N 09°27' W 079°56'0 0.0
2018-Feb-12 02:29N 09°27' W 079°56'0 0.0
2018-Feb-12 01:59N 09°27' W 079°56'0 0.0
2018-Feb-12 01:26N 09°27' W 079°56'0 0.0
2018-Feb-12 00:59N 09°27' W 079°56'0 0.0
2018-Feb-12 00:23N 09°27' W 079°56'0 0.0
2018-Feb-11 23:47N 09°26' W 079°56'0 0.8
2018-Feb-11 23:30N 09°27' W 079°56'2 4.0
2018-Feb-11 23:00N 09°28' W 079°55'510.3
2018-Feb-11 22:30N 09°33' W 079°53'  
2018-Feb-06 10:54N 16°23' W 062°36'613.1
2018-Feb-06 10:28N 16°26' W 062°31'713.2
2018-Feb-06 09:57N 16°29' W 062°24'713.3
2018-Feb-06 09:23N 16°32' W 062°17'513.3
2018-Feb-06 09:00N 16°34' W 062°12'713.3
2018-Feb-06 08:30N 16°37' W 062°06'713.1
2018-Feb-06 08:00N 16°41' W 062°01'713.2
2018-Feb-06 07:30N 16°44' W 061°55'713.1
2018-Feb-06 07:00N 16°48' W 061°49'612.7
2018-Feb-06 06:30N 16°52' W 061°44'612.9
2018-Feb-06 06:00N 16°55' W 061°38'612.8
2018-Feb-06 05:30N 16°59' W 061°33'612.7
2018-Feb-06 05:00N 17°03' W 061°27'612.8
2018-Feb-06 04:30N 17°06' W 061°22'612.7
2018-Feb-06 04:00N 17°10' W 061°16'612.5
2018-Feb-06 03:30N 17°13' W 061°11'612.4
2018-Feb-06 03:00N 17°17' W 061°06'612.7
2018-Feb-06 02:30N 17°21' W 061°00'  

Dump ship's entire track history